createdAt,value
2016-09-13T00:03:55.803Z,"  -73"
2016-09-13T00:08:52.390Z,"  -73"
2016-09-13T00:13:48.984Z,"  -74"
2016-09-13T00:18:45.882Z,"  -72"
2016-09-13T00:23:43.087Z,"  -74"
2016-09-13T00:28:42.546Z,"  -74"
2016-09-13T00:33:38.613Z,"  -74"
2016-09-13T00:38:35.257Z,"  -72"
2016-09-13T00:43:34.331Z,"  -74"
2016-09-13T00:48:30.303Z,"  -74"
2016-09-13T00:53:28.005Z,"  -73"
2016-09-13T00:58:24.238Z,"  -73"
2016-09-13T01:03:23.306Z,"  -73"
2016-09-13T01:08:19.355Z,"  -73"
2016-09-13T01:13:15.896Z,"  -73"
2016-09-13T01:18:12.558Z,"  -73"
2016-09-13T01:23:09.025Z,"  -74"
2016-09-13T01:28:05.600Z,"  -75"
2016-09-13T01:33:02.348Z,"  -74"
2016-09-13T01:37:59.318Z,"  -73"
2016-09-13T01:42:55.722Z,"  -73"
2016-09-13T01:47:52.189Z,"  -74"
2016-09-13T01:52:48.761Z,"  -73"
2016-09-13T01:57:46.402Z,"  -74"
2016-09-13T02:02:43.093Z,"  -75"
2016-09-13T02:07:39.608Z,"  -75"
2016-09-13T02:12:36.303Z,"  -76"
2016-09-13T02:17:32.858Z,"  -75"
2016-09-13T02:22:29.838Z,"  -76"
2016-09-13T02:27:26.345Z,"  -76"
2016-09-13T02:32:22.997Z,"  -76"
2016-09-13T02:37:19.920Z,"  -75"
2016-09-13T02:42:16.675Z,"  -75"
2016-09-13T02:47:13.364Z,"  -75"
2016-09-13T02:52:11.088Z,"  -75"
2016-09-13T02:57:07.437Z,"  -75"
2016-09-13T03:02:04.068Z,"  -75"
2016-09-13T03:07:00.709Z,"  -74"
2016-09-13T03:11:57.307Z,"  -75"
2016-09-13T03:16:53.764Z,"  -75"
2016-09-13T03:21:50.320Z,"  -75"
2016-09-13T03:26:46.988Z,"  -75"
2016-09-13T03:31:43.635Z,"  -76"
2016-09-13T03:36:40.213Z,"  -76"
2016-09-13T03:41:36.960Z,"  -75"
2016-09-13T03:46:33.667Z,"  -76"
2016-09-13T03:51:30.423Z,"  -75"
2016-09-13T03:56:29.401Z,"  -75"
2016-09-13T04:01:25.460Z,"  -75"
2016-09-13T04:06:21.986Z,"  -75"
2016-09-13T04:11:18.889Z,"  -75"
2016-09-13T04:16:17.945Z,"  -75"
2016-09-13T04:21:13.969Z,"  -75"
2016-09-13T04:26:10.541Z,"  -75"
2016-09-13T04:31:07.155Z,"  -74"
2016-09-13T04:36:03.747Z,"  -75"
2016-09-13T04:41:00.388Z,"  -75"
2016-09-13T04:45:57.138Z,"  -75"
2016-09-13T04:50:53.541Z,"  -74"
2016-09-13T04:55:50.152Z,"  -74"
2016-09-13T05:00:46.697Z,"  -74"
2016-09-13T05:05:43.305Z,"  -74"
2016-09-13T05:10:39.896Z,"  -74"
2016-09-13T05:15:36.653Z,"  -74"
2016-09-13T05:20:33.228Z,"  -74"
2016-09-13T05:25:29.976Z,"  -75"
2016-09-13T05:30:26.645Z,"  -74"
2016-09-13T05:35:24.032Z,"  -73"
2016-09-13T05:40:20.985Z,"  -73"
2016-09-13T05:45:17.740Z,"  -73"
2016-09-13T05:50:14.408Z,"  -73"
2016-09-13T05:55:12.392Z,"  -73"
2016-09-13T06:00:08.959Z,"  -73"
2016-09-13T06:05:05.577Z,"  -73"
2016-09-13T06:10:02.128Z,"  -74"
2016-09-13T06:14:58.906Z,"  -73"
2016-09-13T06:19:55.625Z,"  -75"
2016-09-13T06:24:52.226Z,"  -70"
2016-09-13T06:29:48.879Z,"  -69"
2016-09-13T06:34:45.983Z,"  -69"
2016-09-13T06:39:42.775Z,"  -69"
2016-09-13T06:44:39.513Z,"  -69"
2016-09-13T06:49:35.945Z,"  -69"
2016-09-13T06:54:32.753Z,"  -68"
2016-09-13T06:59:29.955Z,"  -68"
2016-09-13T07:04:26.702Z,"  -70"
2016-09-13T07:09:26.027Z,"  -69"
2016-09-13T07:14:21.985Z,"  -70"
2016-09-13T07:19:18.970Z,"  -70"
2016-09-13T07:24:17.096Z,"  -69"
2016-09-13T07:29:13.518Z,"  -71"
2016-09-13T07:34:10.230Z,"  -71"
2016-09-13T07:39:06.719Z,"  -69"
2016-09-13T07:44:03.602Z,"  -72"
2016-09-13T07:49:02.709Z,"  -69"
2016-09-13T07:53:58.716Z,"  -71"
2016-09-13T07:58:56.592Z,"  -68"
2016-09-13T08:03:53.105Z,"  -69"
2016-09-13T08:08:51.191Z,"  -70"
2016-09-13T08:13:47.947Z,"  -73"
2016-09-13T08:18:45.410Z,"  -70"
2016-09-13T08:23:42.628Z,"  -71"
2016-09-13T08:28:39.607Z,"  -70"
2016-09-13T08:33:37.748Z,"  -70"
2016-09-13T08:38:34.417Z,"  -69"
2016-09-13T08:43:31.354Z,"  -70"
2016-09-13T08:48:28.400Z,"  -72"
2016-09-13T08:53:26.134Z,"  -74"
2016-09-13T08:58:22.449Z,"  -71"
2016-09-13T09:03:18.392Z,"  -70"
2016-09-13T09:08:14.688Z,"  -69"
2016-09-13T09:13:13.843Z,"  -70"
2016-09-13T09:18:10.591Z,"  -70"
2016-09-13T09:23:07.270Z,"  -71"
2016-09-13T09:28:04.428Z,"  -70"
2016-09-13T09:33:01.130Z,"  -70"
2016-09-13T09:37:57.650Z,"  -69"
2016-09-13T09:42:56.816Z,"  -69"
2016-09-13T09:47:53.168Z,"  -70"
2016-09-13T09:52:50.355Z,"  -70"
2016-09-13T09:57:47.056Z,"  -69"
2016-09-13T10:02:43.684Z,"  -69"
2016-09-13T10:07:41.418Z,"  -69"
2016-09-13T10:12:37.801Z,"  -69"
2016-09-13T10:17:34.727Z,"  -71"
2016-09-13T10:22:31.279Z,"  -69"
2016-09-13T10:27:28.376Z,"  -70"
2016-09-13T10:32:25.109Z,"  -69"
2016-09-13T10:37:21.888Z,"  -69"
2016-09-13T10:42:18.416Z,"  -69"
2016-09-13T10:47:15.058Z,"  -69"
2016-09-13T10:52:11.878Z,"  -68"
2016-09-13T10:57:08.727Z,"  -70"
2016-09-13T11:02:05.340Z,"  -71"
2016-09-13T11:07:02.046Z,"  -71"
2016-09-13T11:11:59.093Z,"  -71"
2016-09-13T11:16:55.640Z,"  -70"
2016-09-13T11:21:54.899Z,"  -70"
2016-09-13T11:26:51.120Z,"  -70"
2016-09-13T11:31:47.710Z,"  -71"
2016-09-13T11:36:45.625Z,"  -70"
2016-09-13T11:41:42.069Z,"  -70"
2016-09-13T11:46:38.647Z,"  -71"
2016-09-13T11:51:35.308Z,"  -68"
2016-09-13T11:56:31.965Z,"  -68"
2016-09-13T12:01:28.659Z,"  -70"
2016-09-13T12:06:25.357Z,"  -69"
2016-09-13T12:11:21.819Z,"  -69"
2016-09-13T12:16:18.819Z,"  -69"
2016-09-13T12:21:15.822Z,"  -70"
2016-09-13T12:26:12.417Z,"  -70"
2016-09-13T12:31:09.185Z,"  -71"
2016-09-13T12:36:05.870Z,"  -71"
2016-09-13T12:41:02.631Z,"  -71"
2016-09-13T12:45:59.380Z,"  -70"
2016-09-13T12:50:56.144Z,"  -70"
2016-09-13T12:55:52.663Z,"  -70"
2016-09-13T13:00:49.368Z,"  -70"
2016-09-13T13:05:46.019Z,"  -70"
2016-09-13T13:10:43.801Z,"  -69"
2016-09-13T13:15:40.178Z,"  -70"
2016-09-13T13:20:39.529Z,"  -70"
2016-09-13T13:25:35.403Z,"  -71"
2016-09-13T13:30:32.130Z,"  -71"
2016-09-13T13:35:28.826Z,"  -71"
2016-09-13T13:40:25.734Z,"  -71"
2016-09-13T13:45:22.446Z,"  -70"
2016-09-13T13:50:19.171Z,"  -70"
2016-09-13T13:55:16.254Z,"  -69"
2016-09-13T14:00:13.018Z,"  -70"
2016-09-13T14:05:10.146Z,"  -71"
2016-09-13T14:10:06.878Z,"  -70"
2016-09-13T14:15:03.598Z,"  -70"
2016-09-13T14:20:01.064Z,"  -70"
2016-09-13T14:24:57.763Z,"  -69"
2016-09-13T14:29:54.314Z,"  -70"
2016-09-13T14:34:50.942Z,"  -69"
2016-09-13T14:39:47.519Z,"  -70"
2016-09-13T14:44:44.212Z,"  -69"
2016-09-13T14:49:40.929Z,"  -70"
2016-09-13T14:54:37.602Z,"  -70"
2016-09-13T14:59:34.273Z,"  -70"
2016-09-13T15:04:30.954Z,"  -70"
2016-09-13T15:09:27.763Z,"  -70"
2016-09-13T15:14:24.489Z,"  -70"
2016-09-13T15:19:21.532Z,"  -70"
2016-09-13T15:24:18.180Z,"  -71"
2016-09-13T15:29:14.712Z,"  -71"
2016-09-13T15:34:11.618Z,"  -70"
2016-09-13T15:39:08.371Z,"  -70"
2016-09-13T15:44:04.844Z,"  -70"
2016-09-13T15:49:01.498Z,"  -69"
2016-09-13T15:53:58.108Z,"  -70"
2016-09-13T15:58:54.809Z,"  -71"
2016-09-13T16:03:51.447Z,"  -68"
2016-09-13T16:08:48.377Z,"  -67"
2016-09-13T16:13:45.138Z,"  -67"
2016-09-13T16:18:41.901Z,"  -74"
2016-09-13T16:23:38.444Z,"  -73"
2016-09-13T16:28:35.044Z,"  -70"
2016-09-13T16:33:32.968Z,"  -74"
2016-09-13T16:38:29.167Z,"  -68"
2016-09-13T16:43:25.847Z,"  -73"
2016-09-13T16:48:22.516Z,"  -73"
2016-09-13T16:53:19.211Z,"  -72"
2016-09-13T16:58:15.891Z,"  -74"
2016-09-13T17:03:14.417Z,"  -74"
2016-09-13T17:08:10.894Z,"  -72"
2016-09-13T17:13:08.629Z,"  -73"
2016-09-13T17:18:05.008Z,"  -74"
2016-09-13T17:23:01.639Z,"  -72"
2016-09-13T17:27:58.301Z,"  -74"
2016-09-13T17:32:54.814Z,"  -72"
2016-09-13T17:37:51.561Z,"  -69"
2016-09-13T17:42:48.255Z,"  -71"
2016-09-13T17:47:45.285Z,"  -73"
2016-09-13T17:52:42.441Z,"  -72"
2016-09-13T17:57:39.023Z,"  -72"
2016-09-13T18:02:35.668Z,"  -71"
2016-09-13T18:07:32.383Z,"  -72"
2016-09-13T18:12:29.424Z,"  -69"
2016-09-13T18:17:26.201Z,"  -71"
2016-09-13T18:22:24.257Z,"  -67"
2016-09-13T18:27:20.760Z,"  -70"
2016-09-13T18:32:18.764Z,"  -72"
2016-09-13T18:37:15.132Z,"  -67"
2016-09-13T18:42:11.871Z,"  -67"
2016-09-13T18:47:08.450Z,"  -67"
2016-09-13T18:52:05.153Z,"  -68"
2016-09-13T18:57:01.690Z,"  -68"
2016-09-13T19:01:58.547Z,"  -67"
2016-09-13T19:06:55.371Z,"  -67"
2016-09-13T19:11:52.117Z,"  -67"
2016-09-13T19:16:48.692Z,"  -67"
2016-09-13T19:21:45.368Z,"  -68"
2016-09-13T19:26:42.078Z,"  -67"
2016-09-13T19:31:41.126Z,"  -66"
2016-09-13T19:36:37.235Z,"  -65"
2016-09-13T19:41:33.889Z,"  -65"
2016-09-13T19:46:33.082Z,"  -67"
2016-09-13T19:51:29.300Z,"  -65"
2016-09-13T19:56:25.831Z,"  -66"
2016-09-13T20:01:22.343Z,"  -67"
2016-09-13T20:06:19.286Z,"  -66"
2016-09-13T20:11:15.942Z,"  -67"
2016-09-13T20:16:12.881Z,"  -67"
2016-09-13T20:21:10.120Z,"  -67"
2016-09-13T20:26:06.701Z,"  -67"
2016-09-13T20:31:03.461Z,"  -66"
2016-09-13T20:36:00.532Z,"  -67"
2016-09-13T20:40:57.212Z,"  -66"
2016-09-13T20:45:53.740Z,"  -67"
2016-09-13T20:50:50.652Z,"  -67"
2016-09-13T20:55:47.543Z,"  -67"
2016-09-13T21:00:44.409Z,"  -67"
2016-09-13T21:05:43.564Z,"  -67"
2016-09-13T21:10:39.728Z,"  -67"
2016-09-13T21:15:36.344Z,"  -66"
2016-09-13T21:20:33.097Z,"  -68"
2016-09-13T21:25:29.830Z,"  -66"
2016-09-13T21:30:26.763Z,"  -67"
2016-09-13T21:35:23.540Z,"  -66"
2016-09-13T21:40:20.061Z,"  -67"
2016-09-13T21:45:19.669Z,"  -67"
2016-09-13T21:50:15.727Z,"  -67"
2016-09-13T21:55:12.614Z,"  -66"
2016-09-13T22:00:09.536Z,"  -67"
2016-09-13T22:05:06.263Z,"  -67"
2016-09-13T22:10:02.949Z,"  -67"
2016-09-13T22:14:59.638Z,"  -67"
2016-09-13T22:19:56.683Z,"  -67"
2016-09-13T22:24:53.676Z,"  -68"
2016-09-13T22:29:50.224Z,"  -67"
2016-09-13T22:34:47.324Z,"  -67"
2016-09-13T22:39:44.078Z,"  -68"
2016-09-13T22:44:40.760Z,"  -67"
2016-09-13T22:49:37.479Z,"  -67"
2016-09-13T22:54:36.729Z,"  -68"
2016-09-13T22:59:32.690Z,"  -67"
2016-09-13T23:04:29.387Z,"  -67"
2016-09-13T23:09:26.098Z,"  -67"
2016-09-13T23:14:22.677Z,"  -68"
2016-09-13T23:19:22.229Z,"  -67"
2016-09-13T23:24:18.316Z,"  -67"
2016-09-13T23:29:15.399Z,"  -67"
2016-09-13T23:34:12.012Z,"  -66"
2016-09-13T23:39:08.616Z,"  -66"
2016-09-13T23:44:05.271Z,"  -67"
2016-09-13T23:49:01.818Z,"  -67"
2016-09-13T23:53:58.357Z,"  -67"
2016-09-13T23:58:54.972Z,"  -67"
